createdAt,value
2019-01-16T00:00:16.322Z,8.37
2019-01-16T00:01:16.305Z,8.37
2019-01-16T00:02:16.300Z,8.3
2019-01-16T00:03:16.284Z,8.36
2019-01-16T00:04:16.273Z,8.38
2019-01-16T00:05:16.280Z,8.34
2019-01-16T00:06:16.251Z,8.37
2019-01-16T00:07:16.237Z,8.34
2019-01-16T00:08:16.228Z,8.3
2019-01-16T00:09:16.219Z,8.37
2019-01-16T00:10:16.447Z,8.37
2019-01-16T00:11:16.187Z,8.47
2019-01-16T00:12:16.176Z,8.48
2019-01-16T00:13:16.164Z,8.48
2019-01-16T00:14:16.151Z,8.53
2019-01-16T00:15:16.139Z,8.37
2019-01-16T00:16:16.126Z,8.38
2019-01-16T00:17:16.116Z,8.48
2019-01-16T00:18:21.981Z,8.37
2019-01-16T00:19:16.091Z,8.34
2019-01-16T00:20:16.080Z,8.43
2019-01-16T00:21:16.070Z,8.37
2019-01-16T00:22:16.061Z,8.33
2019-01-16T00:23:16.044Z,8.36
2019-01-16T00:24:16.037Z,8.36
2019-01-16T00:25:16.019Z,8.34
2019-01-16T00:26:16.007Z,8.36
2019-01-16T00:27:15.999Z,8.34
2019-01-16T00:28:15.982Z,8.45
2019-01-16T00:29:15.973Z,8.37
2019-01-16T00:30:15.962Z,8.34
2019-01-16T00:31:15.949Z,8.33
2019-01-16T00:32:15.937Z,8.37
2019-01-16T00:33:15.925Z,8.45
2019-01-16T00:34:15.911Z,8.37
2019-01-16T00:35:15.902Z,8.37
2019-01-16T00:36:15.889Z,8.4
2019-01-16T00:37:15.878Z,8.36
2019-01-16T00:38:15.865Z,8.52
2019-01-16T00:39:15.857Z,8.41
2019-01-16T00:40:15.840Z,8.44
2019-01-16T00:41:16.085Z,8.47
2019-01-16T00:42:15.822Z,8.43
2019-01-16T00:43:15.809Z,8.47
2019-01-16T00:44:15.797Z,8.41
2019-01-16T00:45:15.781Z,8.38
2019-01-16T00:46:15.769Z,8.36
2019-01-16T00:47:15.759Z,8.38
2019-01-16T00:48:15.746Z,8.48
2019-01-16T00:49:15.736Z,8.38
2019-01-16T00:50:15.734Z,8.52
2019-01-16T00:51:15.712Z,8.47
2019-01-16T00:52:15.696Z,8.44
2019-01-16T00:53:15.685Z,8.44
2019-01-16T00:54:15.690Z,8.44
2019-01-16T00:55:15.661Z,8.5
2019-01-16T00:56:15.647Z,8.47
2019-01-16T00:57:15.637Z,8.48
2019-01-16T00:58:15.626Z,8.45
2019-01-16T00:59:15.663Z,8.5
2019-01-16T01:00:15.607Z,8.52
2019-01-16T01:01:15.592Z,8.56
2019-01-16T01:02:15.588Z,8.61
2019-01-16T01:03:15.565Z,8.56
2019-01-16T01:04:15.557Z,8.55
2019-01-16T01:05:15.545Z,8.62
2019-01-16T01:06:15.533Z,8.61
2019-01-16T01:07:15.521Z,8.61
2019-01-16T01:08:15.508Z,8.61
2019-01-16T01:09:15.506Z,8.58
2019-01-16T01:10:15.484Z,8.63
2019-01-16T01:11:15.480Z,8.58
2019-01-16T01:12:15.709Z,8.66
2019-01-16T01:13:15.511Z,8.61
2019-01-16T01:14:15.440Z,8.59
2019-01-16T01:15:15.424Z,8.61
2019-01-16T01:16:15.414Z,8.62
2019-01-16T01:17:15.401Z,8.61
2019-01-16T01:18:15.393Z,8.63
2019-01-16T01:19:15.379Z,8.62
2019-01-16T01:20:15.365Z,8.59
2019-01-16T01:21:15.357Z,8.59
2019-01-16T01:22:15.344Z,8.58
2019-01-16T01:23:15.332Z,8.56
2019-01-16T01:24:15.324Z,8.58
2019-01-16T01:25:15.323Z,8.66
2019-01-16T01:26:15.304Z,8.63
2019-01-16T01:27:15.282Z,8.65
2019-01-16T01:28:15.276Z,8.66
2019-01-16T01:29:15.266Z,8.66
2019-01-16T01:30:15.251Z,8.7
2019-01-16T01:31:15.234Z,8.7
2019-01-16T01:32:15.224Z,8.68
2019-01-16T01:33:15.213Z,8.68
2019-01-16T01:34:15.201Z,8.76
2019-01-16T01:35:15.194Z,8.7
2019-01-16T01:36:15.179Z,8.76
2019-01-16T01:37:15.167Z,8.8
2019-01-16T01:38:15.153Z,8.68
2019-01-16T01:39:15.142Z,8.73
2019-01-16T01:40:15.128Z,8.79
2019-01-16T01:41:15.120Z,8.84
2019-01-16T01:42:15.108Z,8.83
2019-01-16T01:43:15.097Z,8.77
2019-01-16T01:44:15.083Z,8.8
2019-01-16T01:45:15.075Z,8.77
2019-01-16T01:46:15.062Z,8.8
2019-01-16T01:47:15.058Z,8.79
2019-01-16T01:48:15.036Z,8.76
2019-01-16T01:49:15.028Z,8.81
2019-01-16T01:50:15.016Z,8.86
2019-01-16T01:51:16.668Z,8.86
2019-01-16T01:52:14.994Z,8.81
2019-01-16T01:53:14.986Z,8.79
2019-01-16T01:54:14.969Z,8.83
2019-01-16T01:55:14.959Z,8.8
2019-01-16T01:56:14.944Z,8.84
2019-01-16T01:57:14.940Z,8.81
2019-01-16T01:58:14.924Z,8.87
2019-01-16T01:59:14.911Z,8.92
2019-01-16T02:00:16.661Z,8.84
2019-01-16T02:01:14.887Z,8.86
2019-01-16T02:02:14.875Z,8.84
2019-01-16T02:03:14.871Z,8.81
2019-01-16T02:04:14.853Z,8.95
2019-01-16T02:05:14.840Z,8.89
2019-01-16T02:06:14.831Z,8.83
2019-01-16T02:07:14.818Z,8.94
2019-01-16T02:08:14.809Z,8.86
2019-01-16T02:09:14.794Z,8.87
2019-01-16T02:10:14.783Z,8.87
2019-01-16T02:11:14.772Z,8.99
2019-01-16T02:12:14.775Z,8.94
2019-01-16T02:13:14.746Z,8.98
2019-01-16T02:14:14.736Z,9.01
2019-01-16T02:15:15.336Z,9.01
2019-01-16T02:16:14.716Z,9.01
2019-01-16T02:17:14.702Z,8.98
2019-01-16T02:18:14.721Z,8.99
2019-01-16T02:19:14.682Z,9.04
2019-01-16T02:20:14.665Z,9.02
2019-01-16T02:21:14.660Z,9.1
2019-01-16T02:22:14.642Z,9.08
2019-01-16T02:23:14.635Z,9.01
2019-01-16T02:24:14.625Z,9.1
2019-01-16T02:25:14.611Z,9.05
2019-01-16T02:26:14.596Z,9.1
2019-01-16T02:27:14.584Z,9.01
2019-01-16T02:28:14.345Z,9.1
2019-01-16T02:29:14.565Z,9.05
2019-01-16T02:30:14.580Z,9.08
2019-01-16T02:31:14.554Z,9.05
2019-01-16T02:32:14.537Z,9.05
2019-01-16T02:33:14.529Z,9.17
2019-01-16T02:34:14.505Z,9.11
2019-01-16T02:35:14.513Z,9.2
2019-01-16T02:36:14.487Z,9.11
2019-01-16T02:37:14.472Z,9.15
2019-01-16T02:38:14.460Z,9.17
2019-01-16T02:39:14.465Z,9.13
2019-01-16T02:40:14.439Z,9.17
2019-01-16T02:41:14.436Z,9.18
2019-01-16T02:42:14.418Z,9.13
2019-01-16T02:43:14.416Z,9.21
2019-01-16T02:44:14.394Z,9.18
2019-01-16T02:45:14.393Z,9.2
2019-01-16T02:46:14.616Z,9.1
2019-01-16T02:47:14.355Z,9.23
2019-01-16T02:48:14.344Z,9.23
2019-01-16T02:49:14.333Z,9.17
2019-01-16T02:50:14.326Z,9.23
2019-01-16T02:51:14.409Z,9.21
2019-01-16T02:52:14.307Z,9.14
2019-01-16T02:53:14.294Z,9.13
2019-01-16T02:54:14.277Z,9.15
2019-01-16T02:55:14.270Z,9.11
2019-01-16T02:56:14.258Z,9.2
2019-01-16T02:57:14.253Z,9.08
2019-01-16T02:58:14.232Z,9.23
2019-01-16T02:59:14.219Z,9.05
2019-01-16T03:00:14.220Z,9.13
2019-01-16T03:01:14.199Z,9.13
2019-01-16T03:02:14.204Z,9.18
2019-01-16T03:03:14.183Z,9.13
2019-01-16T03:04:14.176Z,9.14
2019-01-16T03:05:14.153Z,9.15
2019-01-16T03:06:14.139Z,9.2
2019-01-16T03:07:14.138Z,9.13
2019-01-16T03:08:14.115Z,9.2
2019-01-16T03:09:14.106Z,9.08
2019-01-16T03:10:14.102Z,9.05
2019-01-16T03:11:14.081Z,9.04
2019-01-16T03:12:14.089Z,9.02
2019-01-16T03:13:14.060Z,9.04
2019-01-16T03:14:14.049Z,9.02
2019-01-16T03:15:14.040Z,9.01
2019-01-16T03:16:14.044Z,9.04
2019-01-16T03:17:14.271Z,9.02
2019-01-16T03:18:14.002Z,8.96
2019-01-16T03:19:14.003Z,9.02
2019-01-16T03:20:13.983Z,9.04
2019-01-16T03:21:14.037Z,8.96
2019-01-16T03:22:13.981Z,8.98
2019-01-16T03:23:13.949Z,9.01
2019-01-16T03:24:13.941Z,8.98
2019-01-16T03:25:13.963Z,8.99
2019-01-16T03:26:13.914Z,9.04
2019-01-16T03:27:13.906Z,9.01
2019-01-16T03:28:13.895Z,8.96
2019-01-16T03:29:13.877Z,9.01
2019-01-16T03:30:13.905Z,8.96
2019-01-16T03:31:13.863Z,9.04
2019-01-16T03:32:13.862Z,8.95
2019-01-16T03:33:13.862Z,9.01
2019-01-16T03:34:13.823Z,9.04
2019-01-16T03:35:13.811Z,8.96
2019-01-16T03:36:13.554Z,8.99
2019-01-16T03:37:13.784Z,9.04
2019-01-16T03:38:13.776Z,8.99
2019-01-16T03:39:13.761Z,8.98
2019-01-16T03:40:13.778Z,9.04
2019-01-16T03:41:13.741Z,8.98
2019-01-16T03:42:13.728Z,8.98
2019-01-16T03:43:13.714Z,8.89
2019-01-16T03:44:13.703Z,8.94
2019-01-16T03:45:13.692Z,8.96
2019-01-16T03:46:13.689Z,8.94
2019-01-16T03:47:13.673Z,8.95
2019-01-16T03:48:13.903Z,8.89
2019-01-16T03:49:18.693Z,8.94
2019-01-16T03:50:13.636Z,8.81
2019-01-16T03:51:13.629Z,8.81
2019-01-16T03:52:13.613Z,8.74
2019-01-16T03:53:13.600Z,8.8
2019-01-16T03:54:13.592Z,8.74
2019-01-16T03:55:13.586Z,8.83
2019-01-16T03:56:13.576Z,8.77
2019-01-16T03:57:13.353Z,8.74
2019-01-16T03:58:13.548Z,8.73
2019-01-16T03:59:13.528Z,8.79
2019-01-16T04:00:13.519Z,8.71
2019-01-16T04:01:13.507Z,8.7
2019-01-16T04:02:13.496Z,8.7
2019-01-16T04:03:13.481Z,8.73
2019-01-16T04:04:13.473Z,8.74
2019-01-16T04:05:13.465Z,8.74
2019-01-16T04:06:13.450Z,8.66
2019-01-16T04:07:13.435Z,8.71
2019-01-16T04:08:13.430Z,8.68
2019-01-16T04:09:13.413Z,8.66
2019-01-16T04:10:13.409Z,8.68
2019-01-16T04:11:13.396Z,8.73
2019-01-16T04:12:13.393Z,8.71
2019-01-16T04:13:13.368Z,8.66
2019-01-16T04:14:13.357Z,8.63
2019-01-16T04:15:13.347Z,8.66
2019-01-16T04:16:13.335Z,8.61
2019-01-16T04:17:13.321Z,8.7
2019-01-16T04:18:13.308Z,8.61
2019-01-16T04:19:21.305Z,8.59
2019-01-16T04:20:13.297Z,8.71
2019-01-16T04:21:13.274Z,8.61
2019-01-16T04:22:13.264Z,8.56
2019-01-16T04:23:13.250Z,8.65
2019-01-16T04:24:13.246Z,8.62
2019-01-16T04:25:13.235Z,8.61
2019-01-16T04:26:13.217Z,8.53
2019-01-16T04:27:13.205Z,8.61
2019-01-16T04:28:13.191Z,8.63
2019-01-16T04:29:13.183Z,8.59
2019-01-16T04:30:13.168Z,8.61
2019-01-16T04:31:13.161Z,8.63
2019-01-16T04:32:13.153Z,8.62
2019-01-16T04:33:13.134Z,8.61
2019-01-16T04:34:13.119Z,8.66
2019-01-16T04:35:13.113Z,8.63
2019-01-16T04:36:13.097Z,8.66
2019-01-16T04:37:13.087Z,8.65
2019-01-16T04:38:13.078Z,8.63
2019-01-16T04:39:13.068Z,8.59
2019-01-16T04:40:13.049Z,8.65
2019-01-16T04:41:13.039Z,8.66
2019-01-16T04:42:13.078Z,8.58
2019-01-16T04:43:13.024Z,8.59
2019-01-16T04:44:14.657Z,8.66
2019-01-16T04:45:12.992Z,8.63
2019-01-16T04:46:12.981Z,8.66
2019-01-16T04:47:12.969Z,8.61
2019-01-16T04:48:12.961Z,8.55
2019-01-16T04:49:12.958Z,8.52
2019-01-16T04:50:12.748Z,8.53
2019-01-16T04:51:12.918Z,8.53
2019-01-16T04:52:12.928Z,8.56
2019-01-16T04:53:12.920Z,8.59
2019-01-16T04:54:12.889Z,8.59
2019-01-16T04:55:12.629Z,8.61
2019-01-16T04:56:12.866Z,8.61
2019-01-16T04:57:12.851Z,8.61
2019-01-16T04:58:12.872Z,8.62
2019-01-16T04:59:12.825Z,8.63
2019-01-16T05:00:12.814Z,8.63
2019-01-16T05:01:12.810Z,8.58
2019-01-16T05:02:12.790Z,8.66
2019-01-16T05:03:12.781Z,8.58
2019-01-16T05:04:12.766Z,8.56
2019-01-16T05:05:12.757Z,8.58
2019-01-16T05:06:12.505Z,8.59
2019-01-16T05:07:12.732Z,8.61
2019-01-16T05:08:12.720Z,8.59
2019-01-16T05:09:12.474Z,8.59
2019-01-16T05:10:12.703Z,8.59
2019-01-16T05:11:12.683Z,8.74
2019-01-16T05:12:12.674Z,8.65
2019-01-16T05:13:12.665Z,8.59
2019-01-16T05:14:12.656Z,8.66
2019-01-16T05:15:12.634Z,8.61
2019-01-16T05:16:12.633Z,8.53
2019-01-16T05:17:12.614Z,8.68
2019-01-16T05:18:12.605Z,8.74
2019-01-16T05:19:12.599Z,8.56
2019-01-16T05:20:12.587Z,8.65
2019-01-16T05:21:12.566Z,8.7
2019-01-16T05:22:12.806Z,8.62
2019-01-16T05:23:12.545Z,8.55
2019-01-16T05:24:12.540Z,8.55
2019-01-16T05:25:12.528Z,8.62
2019-01-16T05:26:12.522Z,8.56
2019-01-16T05:27:12.498Z,8.58
2019-01-16T05:28:12.486Z,8.62
2019-01-16T05:29:12.475Z,8.62
2019-01-16T05:30:12.462Z,8.59
2019-01-16T05:31:12.467Z,8.62
2019-01-16T05:32:12.445Z,8.65
2019-01-16T05:33:12.432Z,8.61
2019-01-16T05:34:12.415Z,8.62
2019-01-16T05:35:12.404Z,8.62
2019-01-16T05:36:12.392Z,8.66
2019-01-16T05:37:12.384Z,8.56
2019-01-16T05:38:12.371Z,8.59
2019-01-16T05:39:12.361Z,8.58
2019-01-16T05:40:12.405Z,8.68
2019-01-16T05:41:12.349Z,8.58
2019-01-16T05:42:12.334Z,8.7
2019-01-16T05:43:12.312Z,8.74
2019-01-16T05:44:12.324Z,8.66
2019-01-16T05:45:12.284Z,8.74
2019-01-16T05:46:12.273Z,8.59
2019-01-16T05:47:12.258Z,8.66
2019-01-16T05:48:12.312Z,8.7
2019-01-16T05:49:12.242Z,8.62
2019-01-16T05:50:12.232Z,8.53
2019-01-16T05:51:12.213Z,8.66
2019-01-16T05:52:12.200Z,8.65
2019-01-16T05:53:12.440Z,8.62
2019-01-16T05:54:12.176Z,8.66
2019-01-16T05:55:12.167Z,8.58
2019-01-16T05:56:12.154Z,8.58
2019-01-16T05:57:12.140Z,8.58
2019-01-16T05:58:12.156Z,8.73
2019-01-16T05:59:12.119Z,8.61
2019-01-16T06:00:12.109Z,8.62
2019-01-16T06:01:12.099Z,8.56
2019-01-16T06:02:12.094Z,8.65
2019-01-16T06:03:12.071Z,8.56
2019-01-16T06:04:12.069Z,8.61
2019-01-16T06:05:12.061Z,8.65
2019-01-16T06:06:12.048Z,8.59
2019-01-16T06:07:12.029Z,8.56
2019-01-16T06:08:12.024Z,8.63
2019-01-16T06:09:12.008Z,8.61
2019-01-16T06:10:11.998Z,8.58
2019-01-16T06:11:11.981Z,8.59
2019-01-16T06:12:11.967Z,8.58
2019-01-16T06:13:11.963Z,8.71
2019-01-16T06:14:11.704Z,8.62
2019-01-16T06:15:11.934Z,8.71
2019-01-16T06:16:11.922Z,8.58
2019-01-16T06:17:11.904Z,8.73
2019-01-16T06:18:11.899Z,8.7
2019-01-16T06:19:11.883Z,8.65
2019-01-16T06:20:11.872Z,8.65
2019-01-16T06:21:11.862Z,8.74
2019-01-16T06:22:11.849Z,8.68
2019-01-16T06:23:11.840Z,8.7
2019-01-16T06:24:12.139Z,8.7
2019-01-16T06:25:11.820Z,8.76
2019-01-16T06:26:11.802Z,8.76
2019-01-16T06:27:11.791Z,8.68
2019-01-16T06:28:11.779Z,8.68
2019-01-16T06:29:11.765Z,8.77
2019-01-16T06:30:11.754Z,8.74
2019-01-16T06:31:11.742Z,8.74
2019-01-16T06:32:11.730Z,8.71
2019-01-16T06:33:11.719Z,8.7
2019-01-16T06:34:11.711Z,8.68
2019-01-16T06:35:11.701Z,8.73
2019-01-16T06:36:11.684Z,8.61
2019-01-16T06:37:11.676Z,8.71
2019-01-16T06:38:11.663Z,8.76
2019-01-16T06:39:11.650Z,8.59
2019-01-16T06:40:11.638Z,8.62
2019-01-16T06:41:11.627Z,8.74
2019-01-16T06:42:11.617Z,8.76
2019-01-16T06:43:11.602Z,8.76
2019-01-16T06:44:11.590Z,8.73
2019-01-16T06:45:11.581Z,8.74
2019-01-16T06:46:11.572Z,8.73
2019-01-16T06:47:11.556Z,8.84
2019-01-16T06:48:11.545Z,8.8
2019-01-16T06:49:11.530Z,8.81
2019-01-16T06:50:18.816Z,8.71
2019-01-16T06:51:11.511Z,8.76
2019-01-16T06:52:11.497Z,8.84
2019-01-16T06:53:11.491Z,8.79
2019-01-16T06:54:11.474Z,8.84
2019-01-16T06:55:11.460Z,8.77
2019-01-16T06:56:11.699Z,8.84
2019-01-16T06:57:11.438Z,8.71
2019-01-16T06:58:11.425Z,8.71
2019-01-16T06:59:11.171Z,8.74
2019-01-16T07:00:11.405Z,8.66
2019-01-16T07:01:11.394Z,8.76
2019-01-16T07:02:11.383Z,8.65
2019-01-16T07:03:11.127Z,8.65
2019-01-16T07:04:11.363Z,8.65
2019-01-16T07:05:11.351Z,8.61
2019-01-16T07:06:11.092Z,8.65
2019-01-16T07:07:11.077Z,8.66
2019-01-16T07:08:11.316Z,8.74
2019-01-16T07:09:11.307Z,8.77
2019-01-16T07:10:11.289Z,8.77
2019-01-16T07:11:11.277Z,8.71
2019-01-16T07:12:11.262Z,8.77
2019-01-16T07:13:11.247Z,8.73
2019-01-16T07:14:11.240Z,8.68
2019-01-16T07:15:11.227Z,8.77
2019-01-16T07:16:11.234Z,8.76
2019-01-16T07:17:11.202Z,8.76
2019-01-16T07:18:11.196Z,8.79
2019-01-16T07:19:11.192Z,8.7
2019-01-16T07:20:14.778Z,8.79
2019-01-16T07:21:11.158Z,8.7
2019-01-16T07:22:11.144Z,8.81
2019-01-16T07:23:11.134Z,8.71
2019-01-16T07:24:11.123Z,8.74
2019-01-16T07:25:11.107Z,8.71
2019-01-16T07:26:11.103Z,8.76
2019-01-16T07:27:11.086Z,8.76
2019-01-16T07:28:11.075Z,8.63
2019-01-16T07:29:11.063Z,8.66
2019-01-16T07:30:11.050Z,8.66
2019-01-16T07:31:11.039Z,8.68
2019-01-16T07:32:11.032Z,8.71
2019-01-16T07:33:11.018Z,8.68
2019-01-16T07:34:11.004Z,8.71
2019-01-16T07:35:10.992Z,8.73
2019-01-16T07:36:10.981Z,8.71
2019-01-16T07:37:10.969Z,8.73
2019-01-16T07:38:10.961Z,8.79
2019-01-16T07:39:10.948Z,8.7
2019-01-16T07:40:10.940Z,8.83
2019-01-16T07:41:10.925Z,8.83
2019-01-16T07:42:10.927Z,8.81
2019-01-16T07:43:10.907Z,8.86
2019-01-16T07:44:10.887Z,8.8
2019-01-16T07:45:10.874Z,8.71
2019-01-16T07:46:10.865Z,8.76
2019-01-16T07:47:10.861Z,8.81
2019-01-16T07:48:10.843Z,8.77
2019-01-16T07:49:10.831Z,8.83
2019-01-16T07:50:17.101Z,8.77
2019-01-16T07:51:10.810Z,8.79
2019-01-16T07:52:10.795Z,8.8
2019-01-16T07:53:10.786Z,8.79
2019-01-16T07:54:10.775Z,8.74
2019-01-16T07:55:10.762Z,8.79
2019-01-16T07:56:10.749Z,8.79
2019-01-16T07:57:10.736Z,8.84
2019-01-16T07:58:10.979Z,8.84
2019-01-16T07:59:10.716Z,8.83
2019-01-16T08:00:10.705Z,8.84
2019-01-16T08:01:10.694Z,8.89
2019-01-16T08:02:10.685Z,8.84
2019-01-16T08:03:10.731Z,8.94
2019-01-16T08:04:10.655Z,8.86
2019-01-16T08:05:10.645Z,8.89
2019-01-16T08:06:10.638Z,8.92
2019-01-16T08:07:10.626Z,8.87
2019-01-16T08:08:10.610Z,8.86
2019-01-16T08:09:10.602Z,8.95
2019-01-16T08:10:10.587Z,8.95
2019-01-16T08:11:10.577Z,8.87
2019-01-16T08:12:10.564Z,8.92
2019-01-16T08:13:10.558Z,8.84
2019-01-16T08:14:10.540Z,8.84
2019-01-16T08:15:10.532Z,8.84
2019-01-16T08:16:10.585Z,8.86
2019-01-16T08:17:10.506Z,8.89
2019-01-16T08:18:10.494Z,8.81
2019-01-16T08:19:10.484Z,8.84
2019-01-16T08:20:10.512Z,8.89
2019-01-16T08:21:10.469Z,8.86
2019-01-16T08:22:10.451Z,8.87
2019-01-16T08:23:10.440Z,8.94
2019-01-16T08:24:10.431Z,8.95
2019-01-16T08:25:10.417Z,8.96
2019-01-16T08:26:10.401Z,8.91
2019-01-16T08:27:10.392Z,9.02
2019-01-16T08:28:10.379Z,8.98
2019-01-16T08:29:10.642Z,9.01
2019-01-16T08:30:10.396Z,9.02
2019-01-16T08:31:10.346Z,9.08
2019-01-16T08:32:10.337Z,9.05
2019-01-16T08:33:10.325Z,9.1
2019-01-16T08:34:10.316Z,9.05
2019-01-16T08:35:10.304Z,9.05
2019-01-16T08:36:10.293Z,9.11
2019-01-16T08:37:10.282Z,9.02
2019-01-16T08:38:10.267Z,9.02
2019-01-16T08:39:10.321Z,9.02
2019-01-16T08:40:10.253Z,8.99
2019-01-16T08:41:10.232Z,8.92
2019-01-16T08:42:10.224Z,8.98
2019-01-16T08:43:10.213Z,8.95
2019-01-16T08:44:16.145Z,8.94
2019-01-16T08:45:10.193Z,8.91
2019-01-16T08:46:10.186Z,8.96
2019-01-16T08:47:10.163Z,8.87
2019-01-16T08:48:10.152Z,8.89
2019-01-16T08:49:10.146Z,8.98
2019-01-16T08:50:10.134Z,9.02
2019-01-16T08:51:10.206Z,9.01
2019-01-16T08:52:09.869Z,9.15
2019-01-16T08:53:10.097Z,9.21
2019-01-16T08:54:10.156Z,9.14
2019-01-16T08:55:10.077Z,9.23
2019-01-16T08:56:10.065Z,9.21
2019-01-16T08:57:10.057Z,9.13
2019-01-16T08:58:10.047Z,9.18
2019-01-16T08:59:10.029Z,9.21
2019-01-16T09:00:10.020Z,9.18
2019-01-16T09:01:10.006Z,9.2
2019-01-16T09:02:09.994Z,9.18
2019-01-16T09:03:10.041Z,9.11
2019-01-16T09:04:09.971Z,9.18
2019-01-16T09:05:09.965Z,9.23
2019-01-16T09:06:09.950Z,9.17
2019-01-16T09:07:09.939Z,9.17
2019-01-16T09:08:09.931Z,9.11
2019-01-16T09:09:09.917Z,9.11
2019-01-16T09:10:09.930Z,9.11
2019-01-16T09:11:09.892Z,9.11
2019-01-16T09:12:09.888Z,9.1
2019-01-16T09:13:09.871Z,9.17
2019-01-16T09:14:09.861Z,9.1
2019-01-16T09:15:09.850Z,9.15
2019-01-16T09:16:09.840Z,8.99
2019-01-16T09:17:09.831Z,9.05
2019-01-16T09:18:09.819Z,9.05
2019-01-16T09:19:09.808Z,9.05
2019-01-16T09:20:09.855Z,9.11
2019-01-16T09:21:09.787Z,9.23
2019-01-16T09:22:09.773Z,9.15
2019-01-16T09:23:09.761Z,9.11
2019-01-16T09:24:09.752Z,9.28
2019-01-16T09:25:09.749Z,9.26
2019-01-16T09:26:09.727Z,9.26
2019-01-16T09:27:09.717Z,9.31
2019-01-16T09:28:09.705Z,9.32
2019-01-16T09:29:09.691Z,9.38
2019-01-16T09:30:09.683Z,9.28
2019-01-16T09:31:09.667Z,9.35
2019-01-16T09:32:09.661Z,9.33
2019-01-16T09:33:09.649Z,9.31
2019-01-16T09:34:09.635Z,9.33
2019-01-16T09:35:09.627Z,9.35
2019-01-16T09:36:09.619Z,9.32
2019-01-16T09:37:09.602Z,9.4
2019-01-16T09:38:09.592Z,9.47
2019-01-16T09:39:09.580Z,9.4
2019-01-16T09:40:09.574Z,9.42
2019-01-16T09:41:09.603Z,9.38
2019-01-16T09:42:09.697Z,9.38
2019-01-16T09:43:09.537Z,9.39
2019-01-16T09:44:09.527Z,9.35
2019-01-16T09:45:09.516Z,9.36
2019-01-16T09:46:09.503Z,9.35
2019-01-16T09:47:09.489Z,9.38
2019-01-16T09:48:09.481Z,9.42
2019-01-16T09:49:09.468Z,9.38
2019-01-16T09:50:09.462Z,9.35
2019-01-16T09:51:09.451Z,9.36
2019-01-16T09:52:09.439Z,9.26
2019-01-16T09:53:09.429Z,9.28
2019-01-16T09:54:09.416Z,9.15
2019-01-16T09:55:09.408Z,9.17
2019-01-16T09:56:09.409Z,9.17
2019-01-16T09:57:09.380Z,9.23
2019-01-16T09:58:09.372Z,9.13
2019-01-16T09:59:09.360Z,9.13
2019-01-16T10:00:09.345Z,9.05
2019-01-16T10:01:09.342Z,9.02
2019-01-16T10:02:09.327Z,9.01
2019-01-16T10:03:09.565Z,8.99
2019-01-16T10:04:09.304Z,9.13
2019-01-16T10:05:09.294Z,9.15
2019-01-16T10:06:09.282Z,9.13
2019-01-16T10:07:09.272Z,9.26
2019-01-16T10:08:09.260Z,9.2
2019-01-16T10:09:09.246Z,9.15
2019-01-16T10:10:09.240Z,9.18
2019-01-16T10:11:09.224Z,9.18
2019-01-16T10:12:09.215Z,9.28
2019-01-16T10:13:09.206Z,9.32
2019-01-16T10:14:09.191Z,9.29
2019-01-16T10:15:09.181Z,9.28
2019-01-16T10:16:09.178Z,9.33
2019-01-16T10:17:09.158Z,9.32
2019-01-16T10:18:09.388Z,9.47
2019-01-16T10:19:09.137Z,9.38
2019-01-16T10:20:09.128Z,9.47
2019-01-16T10:21:09.114Z,9.43
2019-01-16T10:22:09.105Z,9.42
2019-01-16T10:23:09.092Z,9.43
2019-01-16T10:24:09.078Z,9.38
2019-01-16T10:25:09.072Z,9.4
2019-01-16T10:26:09.056Z,9.53
2019-01-16T10:27:09.050Z,9.47
2019-01-16T10:28:09.036Z,9.47
2019-01-16T10:29:09.025Z,9.48
2019-01-16T10:30:09.014Z,9.48
2019-01-16T10:31:09.006Z,9.54
2019-01-16T10:32:09.004Z,9.54
2019-01-16T10:33:08.979Z,9.48
2019-01-16T10:34:09.271Z,9.54
2019-01-16T10:35:08.958Z,9.56
2019-01-16T10:36:08.946Z,9.54
2019-01-16T10:37:08.934Z,9.57
2019-01-16T10:38:08.924Z,9.47
2019-01-16T10:39:08.916Z,9.46
2019-01-16T10:40:08.907Z,9.57
2019-01-16T10:41:08.895Z,9.48
2019-01-16T10:42:08.883Z,9.48
2019-01-16T10:43:08.883Z,9.6
2019-01-16T10:44:08.862Z,9.58
2019-01-16T10:45:08.847Z,9.57
2019-01-16T10:46:08.839Z,9.58
2019-01-16T10:47:08.832Z,9.61
2019-01-16T10:48:08.820Z,9.58
2019-01-16T10:49:08.807Z,9.6
2019-01-16T10:50:08.808Z,9.61
2019-01-16T10:51:08.784Z,9.54
2019-01-16T10:52:08.780Z,9.65
2019-01-16T10:53:08.762Z,9.58
2019-01-16T10:54:08.751Z,9.64
2019-01-16T10:55:08.743Z,9.58
2019-01-16T10:56:08.736Z,9.58
2019-01-16T10:57:08.779Z,9.58
2019-01-16T10:58:08.717Z,9.58
2019-01-16T10:59:08.707Z,9.64
2019-01-16T11:00:08.687Z,9.61
2019-01-16T11:01:08.681Z,9.64
2019-01-16T11:02:08.663Z,9.68
2019-01-16T11:03:08.655Z,9.75
2019-01-16T11:04:08.643Z,9.68
2019-01-16T11:05:08.885Z,9.71
2019-01-16T11:06:08.625Z,9.79
2019-01-16T11:07:08.613Z,9.76
2019-01-16T11:08:08.600Z,9.84
2019-01-16T11:09:08.591Z,9.87
2019-01-16T11:10:08.584Z,9.87
2019-01-16T11:11:15.838Z,9.96
2019-01-16T11:12:08.558Z,9.9
2019-01-16T11:13:08.554Z,9.97
2019-01-16T11:14:08.538Z,9.97
2019-01-16T11:15:08.528Z,10.04
2019-01-16T11:16:08.512Z,10.02
2019-01-16T11:17:08.507Z,9.96
2019-01-16T11:18:08.495Z,10.08
2019-01-16T11:19:08.482Z,10.08
2019-01-16T11:20:08.482Z,10.11
2019-01-16T11:21:15.688Z,10.07
2019-01-16T11:22:08.447Z,10.11
2019-01-16T11:23:08.442Z,10.2
2019-01-16T11:24:08.432Z,10.18
2019-01-16T11:25:08.419Z,10.2
2019-01-16T11:26:08.411Z,10.29
2019-01-16T11:27:08.404Z,10.2
2019-01-16T11:28:08.387Z,10.2
2019-01-16T11:29:08.378Z,10.36
2019-01-16T11:30:08.368Z,10.29
2019-01-16T11:31:08.363Z,10.34
2019-01-16T11:32:08.345Z,10.22
2019-01-16T11:33:08.338Z,10.29
2019-01-16T11:34:08.330Z,10.32
2019-01-16T11:35:08.321Z,10.34
2019-01-16T11:36:08.319Z,10.33
2019-01-16T11:37:08.543Z,10.32
2019-01-16T11:38:08.285Z,10.38
2019-01-16T11:39:08.276Z,10.45
2019-01-16T11:40:09.605Z,10.36
2019-01-16T11:41:08.261Z,10.33
2019-01-16T11:42:08.545Z,10.42
2019-01-16T11:43:08.239Z,10.4
2019-01-16T11:44:08.228Z,10.42
2019-01-16T11:45:08.221Z,10.51
2019-01-16T11:46:08.204Z,10.44
2019-01-16T11:47:08.224Z,10.44
2019-01-16T11:48:07.945Z,10.55
2019-01-16T11:49:08.174Z,10.56
2019-01-16T11:50:08.166Z,10.56
2019-01-16T11:51:08.153Z,10.53
2019-01-16T11:52:08.144Z,10.48
2019-01-16T11:53:08.169Z,10.51
2019-01-16T11:54:08.123Z,10.47
2019-01-16T11:55:08.127Z,10.45
2019-01-16T11:56:08.106Z,10.42
2019-01-16T11:57:08.094Z,10.47
2019-01-16T11:58:08.087Z,10.44
2019-01-16T11:59:08.081Z,10.47
2019-01-16T12:00:08.066Z,10.4
2019-01-16T12:01:08.058Z,10.42
2019-01-16T12:02:08.044Z,10.38
2019-01-16T12:03:08.033Z,10.32
2019-01-16T12:04:08.030Z,10.32
2019-01-16T12:05:08.018Z,10.26
2019-01-16T12:06:08.009Z,10.29
2019-01-16T12:07:08.001Z,10.38
2019-01-16T12:08:08.236Z,10.33
2019-01-16T12:09:07.972Z,10.4
2019-01-16T12:10:07.966Z,10.33
2019-01-16T12:11:07.953Z,10.3
2019-01-16T12:12:07.940Z,10.3
2019-01-16T12:13:07.939Z,10.34
2019-01-16T12:14:07.929Z,10.3
2019-01-16T12:15:07.911Z,10.36
2019-01-16T12:16:07.903Z,10.27
2019-01-16T12:17:07.891Z,10.38
2019-01-16T12:18:07.887Z,10.3
2019-01-16T12:19:07.873Z,10.34
2019-01-16T12:20:07.862Z,10.33
2019-01-16T12:21:07.855Z,10.41
2019-01-16T12:22:07.846Z,10.34
2019-01-16T12:23:07.834Z,10.33
2019-01-16T12:24:07.820Z,10.32
2019-01-16T12:25:07.830Z,10.23
2019-01-16T12:26:12.933Z,10.2
2019-01-16T12:27:07.792Z,10.18
2019-01-16T12:28:07.779Z,10.26
2019-01-16T12:29:07.771Z,10.22
2019-01-16T12:30:07.770Z,10.2
2019-01-16T12:31:07.833Z,10.23
2019-01-16T12:32:07.741Z,10.2
2019-01-16T12:33:07.735Z,10.12
2019-01-16T12:34:07.716Z,10.05
2019-01-16T12:35:07.713Z,10.11
2019-01-16T12:36:07.697Z,10.12
2019-01-16T12:37:07.692Z,10.07
2019-01-16T12:38:07.676Z,10.14
2019-01-16T12:39:07.916Z,10.09
2019-01-16T12:40:08.882Z,10.12
2019-01-16T12:41:07.649Z,10.07
2019-01-16T12:42:07.635Z,10.11
2019-01-16T12:43:07.628Z,10.12
2019-01-16T12:44:07.615Z,10.11
2019-01-16T12:45:07.606Z,10.08
2019-01-16T12:46:07.598Z,10.09
2019-01-16T12:47:07.585Z,10.11
2019-01-16T12:48:07.575Z,10.07
2019-01-16T12:49:08.456Z,10.14
2019-01-16T12:50:07.553Z,10.09
2019-01-16T12:51:07.543Z,10.11
2019-01-16T12:52:07.539Z,10.08
2019-01-16T12:53:07.523Z,10.07
2019-01-16T12:54:07.512Z,10.01
2019-01-16T12:55:07.511Z,10.14
2019-01-16T12:56:07.502Z,10.07
2019-01-16T12:57:07.479Z,10.09
2019-01-16T12:58:13.300Z,10.08
2019-01-16T12:59:07.461Z,10.07
2019-01-16T13:00:07.451Z,10.07
2019-01-16T13:01:07.440Z,10.09
2019-01-16T13:02:07.605Z,10.12
2019-01-16T13:03:07.419Z,10.08
2019-01-16T13:04:07.408Z,10.08
2019-01-16T13:05:07.399Z,9.96
2019-01-16T13:06:07.389Z,10.07
2019-01-16T13:07:07.377Z,10.15
2019-01-16T13:08:07.364Z,9.96
2019-01-16T13:09:07.358Z,10.11
2019-01-16T13:10:07.594Z,10.01
2019-01-16T13:11:07.337Z,9.99
2019-01-16T13:12:07.324Z,10.05
2019-01-16T13:13:07.313Z,10.08
2019-01-16T13:14:07.305Z,10.05
2019-01-16T13:15:07.292Z,10.05
2019-01-16T13:16:07.286Z,9.96